createdAt,value
2022-08-17T00:02:26.382Z,17.50
2022-08-17T00:04:55.423Z,17.50
2022-08-17T00:07:23.367Z,17.50
2022-08-17T00:09:50.414Z,17.50
2022-08-17T00:12:43.210Z,17.40
2022-08-17T00:15:10.374Z,17.30
2022-08-17T00:17:38.323Z,17.40
2022-08-17T00:20:06.364Z,17.40
2022-08-17T00:22:36.502Z,17.40
2022-08-17T00:25:08.165Z,17.30
2022-08-17T00:27:36.952Z,17.30
2022-08-17T00:30:07.471Z,17.20
2022-08-17T00:33:22.894Z,17.20
2022-08-17T00:35:27.971Z,17.10
2022-08-17T00:37:55.465Z,17.10
2022-08-17T00:40:24.777Z,17.10
2022-08-17T00:42:53.521Z,17.00
2022-08-17T00:45:22.594Z,17.00
2022-08-17T00:47:49.730Z,17.00
2022-08-17T00:50:19.275Z,16.90
2022-08-17T00:52:53.875Z,16.90
2022-08-17T00:55:21.238Z,16.90
2022-08-17T00:57:55.592Z,16.80
2022-08-17T01:00:28.461Z,16.70
2022-08-17T01:03:01.971Z,16.70
2022-08-17T01:05:32.287Z,16.70
2022-08-17T01:08:01.133Z,16.70
2022-08-17T01:10:59.689Z,16.70
2022-08-17T01:13:25.136Z,16.70
2022-08-17T01:16:22.018Z,16.70
2022-08-17T01:18:53.299Z,16.60
2022-08-17T01:21:28.664Z,16.60
2022-08-17T01:23:56.490Z,16.60
2022-08-17T01:26:23.930Z,16.60
2022-08-17T01:28:54.815Z,16.60
2022-08-17T01:31:27.852Z,16.60
2022-08-17T01:33:55.238Z,16.50
2022-08-17T01:36:22.481Z,16.40
2022-08-17T01:38:49.787Z,16.50
2022-08-17T01:41:17.502Z,16.40
2022-08-17T01:43:52.081Z,16.40
2022-08-17T01:46:24.276Z,16.40
2022-08-17T01:48:51.629Z,16.40
2022-08-17T01:51:19.998Z,16.30
2022-08-17T01:53:52.737Z,16.30
2022-08-17T01:56:23.672Z,16.30
2022-08-17T01:58:50.845Z,16.30
2022-08-17T02:01:21.103Z,16.30
2022-08-17T02:03:54.561Z,16.30
2022-08-17T02:06:30.605Z,16.20
2022-08-17T02:09:02.315Z,16.20
2022-08-17T02:11:34.202Z,16.20
2022-08-17T02:14:03.225Z,16.20
2022-08-17T02:16:37.012Z,16.20
2022-08-17T02:19:09.620Z,16.20
2022-08-17T02:21:38.283Z,16.10
2022-08-17T02:24:08.667Z,16.10
2022-08-17T02:26:35.851Z,16.00
2022-08-17T02:29:04.283Z,16.00
2022-08-17T02:31:32.087Z,16.00
2022-08-17T02:34:04.185Z,16.00
2022-08-17T02:36:34.323Z,15.90
2022-08-17T02:39:03.532Z,16.00
2022-08-17T02:41:31.058Z,15.90
2022-08-17T02:43:58.249Z,15.90
2022-08-17T02:46:25.842Z,15.90
2022-08-17T02:48:52.959Z,16.00
2022-08-17T02:51:20.126Z,15.90
2022-08-17T02:53:47.248Z,15.90
2022-08-17T02:56:14.704Z,15.90
2022-08-17T02:58:41.766Z,15.90
2022-08-17T03:01:10.595Z,15.80
2022-08-17T03:03:38.400Z,15.80
2022-08-17T03:06:06.197Z,15.80
2022-08-17T03:08:33.613Z,15.80
2022-08-17T03:11:00.616Z,15.80
2022-08-17T03:13:27.751Z,15.80
2022-08-17T03:15:54.886Z,15.90
2022-08-17T03:18:25.574Z,15.90
2022-08-17T03:20:55.126Z,15.80
2022-08-17T03:23:23.985Z,15.80
2022-08-17T03:25:53.416Z,15.80
2022-08-17T03:28:21.766Z,15.90
2022-08-17T03:30:49.426Z,15.80
2022-08-17T03:33:17.063Z,15.80
2022-08-17T03:35:44.588Z,15.80
2022-08-17T03:38:12.647Z,15.80
2022-08-17T03:40:57.891Z,15.70
2022-08-17T03:43:31.375Z,15.60
2022-08-17T03:46:27.138Z,15.60
2022-08-17T03:49:16.396Z,15.60
2022-08-17T03:52:03.432Z,15.60
2022-08-17T03:54:50.442Z,15.60
2022-08-17T03:57:18.531Z,15.60
2022-08-17T03:59:45.607Z,15.50
2022-08-17T04:02:19.835Z,15.60
2022-08-17T04:04:47.120Z,15.60
2022-08-17T04:07:14.281Z,15.60
2022-08-17T04:09:42.961Z,15.60
2022-08-17T04:12:10.098Z,15.70
2022-08-17T04:14:52.076Z,15.70
2022-08-17T04:17:25.066Z,15.70
2022-08-17T04:19:52.624Z,15.70
2022-08-17T04:22:31.229Z,15.80
2022-08-17T04:25:03.706Z,15.80
2022-08-17T04:27:30.794Z,16.00
2022-08-17T04:29:58.765Z,16.00
2022-08-17T04:33:04.973Z,16.10
2022-08-17T04:35:13.002Z,16.20
2022-08-17T04:37:40.055Z,16.30
2022-08-17T04:40:27.613Z,16.30
2022-08-17T04:43:18.733Z,16.40
2022-08-17T04:45:51.234Z,16.40
2022-08-17T04:48:29.609Z,16.40
2022-08-17T04:51:06.467Z,16.50
2022-08-17T04:53:33.615Z,16.50
2022-08-17T04:56:00.597Z,16.60
2022-08-17T04:58:28.067Z,16.70
2022-08-17T05:00:55.172Z,16.70
2022-08-17T05:03:22.296Z,16.80
2022-08-17T05:05:49.936Z,16.90
2022-08-17T05:08:19.328Z,17.00
2022-08-17T05:10:47.590Z,17.20
2022-08-17T05:13:18.978Z,17.30
2022-08-17T05:15:49.493Z,17.50
2022-08-17T05:18:17.514Z,17.60
2022-08-17T05:20:44.998Z,17.80
2022-08-17T05:23:16.309Z,17.80
2022-08-17T05:25:48.469Z,17.90
2022-08-17T05:28:19.071Z,18.10
2022-08-17T05:30:51.635Z,18.10
2022-08-17T05:33:22.579Z,18.30
2022-08-17T05:35:51.870Z,18.40
2022-08-17T05:38:21.318Z,18.50
2022-08-17T05:40:48.978Z,18.60
2022-08-17T05:43:17.104Z,18.70
2022-08-17T05:45:55.104Z,18.70
2022-08-17T05:48:39.746Z,18.80
2022-08-17T05:51:28.367Z,19.00
2022-08-17T05:54:35.316Z,19.20
2022-08-17T05:57:10.885Z,19.30
2022-08-17T05:59:58.295Z,19.50
2022-08-17T06:02:47.881Z,19.70
2022-08-17T06:05:15.832Z,20.00
2022-08-17T06:07:58.230Z,20.80
2022-08-17T06:10:46.669Z,23.20
2022-08-17T06:13:24.102Z,26.10
2022-08-17T06:15:55.399Z,28.90
2022-08-17T06:18:26.032Z,30.70
2022-08-17T06:20:58.409Z,32.40
2022-08-17T06:23:33.972Z,33.40
2022-08-17T06:26:12.960Z,34.40
2022-08-17T06:28:50.392Z,35.30
2022-08-17T06:31:29.309Z,35.90
2022-08-17T06:33:58.873Z,36.50
2022-08-17T06:36:49.149Z,37.00
2022-08-17T06:39:31.071Z,37.10
2022-08-17T06:43:02.331Z,37.10
2022-08-17T06:45:31.180Z,36.20
2022-08-17T06:48:16.459Z,36.40
2022-08-17T06:50:49.217Z,36.90
2022-08-17T06:53:46.545Z,37.60
2022-08-17T06:56:24.444Z,36.80
2022-08-17T06:59:15.783Z,36.60
2022-08-17T07:01:45.436Z,36.70
2022-08-17T07:04:19.240Z,36.60
2022-08-17T07:06:48.428Z,37.10
2022-08-17T07:09:21.697Z,37.90
2022-08-17T07:11:54.314Z,37.80
2022-08-17T07:14:48.260Z,37.50
2022-08-17T07:17:18.481Z,38.30
2022-08-17T07:19:48.115Z,38.50
2022-08-17T07:22:18.494Z,38.70
2022-08-17T07:24:52.797Z,38.20
2022-08-17T07:27:21.718Z,39.10
2022-08-17T07:29:54.411Z,39.60
2022-08-17T07:32:24.156Z,39.90
2022-08-17T07:35:11.373Z,39.70
2022-08-17T07:37:42.388Z,39.60
2022-08-17T07:40:17.211Z,39.80
2022-08-17T07:43:04.815Z,39.90
2022-08-17T07:45:53.913Z,40.30
2022-08-17T07:48:25.114Z,40.10
2022-08-17T07:50:53.816Z,40.10
2022-08-17T07:53:24.526Z,39.90
2022-08-17T07:55:53.927Z,40.20
2022-08-17T07:58:23.971Z,40.40
2022-08-17T08:01:05.715Z,40.70
2022-08-17T08:03:34.241Z,40.90
2022-08-17T08:06:03.379Z,40.70
2022-08-17T08:08:37.012Z,40.40
2022-08-17T08:11:08.350Z,40.40
2022-08-17T08:13:42.619Z,40.80
2022-08-17T08:16:29.727Z,41.10
2022-08-17T08:19:01.187Z,41.50
2022-08-17T08:21:36.714Z,41.70
2022-08-17T08:24:23.802Z,41.50
2022-08-17T08:27:12.919Z,41.30
2022-08-17T08:29:41.098Z,41.10
2022-08-17T08:32:20.632Z,41.00
2022-08-17T08:35:10.070Z,40.80
2022-08-17T08:37:59.047Z,42.00
2022-08-17T08:40:44.989Z,41.80
2022-08-17T08:43:52.852Z,41.20
2022-08-17T08:46:49.197Z,41.10
2022-08-17T08:49:59.565Z,39.70
2022-08-17T08:52:38.918Z,38.10
2022-08-17T08:55:17.932Z,37.20
2022-08-17T08:57:54.496Z,36.40
2022-08-17T09:00:25.298Z,35.80
2022-08-17T09:03:03.104Z,35.10
2022-08-17T09:05:32.249Z,34.40
2022-08-17T09:08:04.685Z,34.10
2022-08-17T09:10:45.922Z,33.90
2022-08-17T09:13:16.395Z,34.00
2022-08-17T09:15:48.198Z,34.10
2022-08-17T09:19:01.185Z,33.90
2022-08-17T09:21:33.830Z,33.80
2022-08-17T09:24:25.495Z,33.90
2022-08-17T09:27:15.696Z,34.10
2022-08-17T09:29:50.425Z,34.10
2022-08-17T09:32:25.132Z,34.00
2022-08-17T09:34:56.912Z,34.10
2022-08-17T09:37:31.182Z,34.10
2022-08-17T09:40:09.544Z,34.20
2022-08-17T09:42:48.421Z,34.20
2022-08-17T09:45:40.964Z,33.90
2022-08-17T09:48:14.742Z,33.70
2022-08-17T09:51:04.960Z,33.60
2022-08-17T09:53:38.157Z,33.60
2022-08-17T09:56:18.912Z,33.70
2022-08-17T09:58:52.643Z,33.60
2022-08-17T10:01:21.281Z,33.50
2022-08-17T10:04:09.360Z,33.30
2022-08-17T10:06:47.824Z,33.50
2022-08-17T10:09:22.957Z,33.50
2022-08-17T10:12:17.306Z,33.60
2022-08-17T10:15:08.031Z,33.50
2022-08-17T10:18:16.325Z,33.50
2022-08-17T10:21:26.541Z,33.90
2022-08-17T10:24:23.556Z,33.90
2022-08-17T10:26:56.567Z,34.00
2022-08-17T10:29:31.587Z,33.90
2022-08-17T10:32:23.340Z,33.90
2022-08-17T10:35:14.664Z,33.90
2022-08-17T10:37:56.808Z,33.90
2022-08-17T10:40:46.152Z,33.70
2022-08-17T10:43:18.336Z,34.00
2022-08-17T10:46:09.496Z,33.90
2022-08-17T10:49:25.252Z,34.00
2022-08-17T10:51:54.518Z,34.10
2022-08-17T10:54:25.038Z,34.30
2022-08-17T10:56:54.288Z,34.30
2022-08-17T10:59:36.916Z,34.00
2022-08-17T11:02:05.075Z,33.90
2022-08-17T11:04:42.617Z,34.10
2022-08-17T11:07:20.676Z,34.20
2022-08-17T11:10:11.131Z,34.10
2022-08-17T11:12:50.543Z,34.00
2022-08-17T11:15:38.154Z,34.20
2022-08-17T11:18:25.082Z,34.10
2022-08-17T11:20:59.718Z,34.10
2022-08-17T11:23:37.500Z,34.30
2022-08-17T11:26:26.375Z,34.10
2022-08-17T11:29:09.004Z,34.10
2022-08-17T11:31:41.608Z,34.30
2022-08-17T11:34:21.628Z,34.50
2022-08-17T11:36:53.141Z,34.10
2022-08-17T11:39:49.122Z,34.00
2022-08-17T11:42:43.863Z,34.10
2022-08-17T11:45:50.808Z,34.40
2022-08-17T11:48:51.713Z,34.20
2022-08-17T11:51:37.939Z,34.00
2022-08-17T11:57:00.484Z,34.60
2022-08-17T11:59:35.953Z,34.80
2022-08-17T12:02:26.355Z,34.90
2022-08-17T12:05:17.385Z,34.90
2022-08-17T12:07:52.445Z,34.90
2022-08-17T12:10:30.216Z,34.50
2022-08-17T12:12:59.047Z,34.40
2022-08-17T12:15:31.739Z,34.40
2022-08-17T12:17:59.290Z,34.70
2022-08-17T12:20:38.251Z,34.70
2022-08-17T12:23:12.921Z,34.70
2022-08-17T12:25:46.906Z,34.80
2022-08-17T12:28:30.138Z,34.70
2022-08-17T12:31:17.868Z,34.60
2022-08-17T12:33:46.511Z,34.70
2022-08-17T12:36:16.338Z,34.70
2022-08-17T12:38:59.561Z,34.90
2022-08-17T12:41:44.744Z,34.80
2022-08-17T12:44:12.365Z,34.90
2022-08-17T12:46:51.405Z,34.80
2022-08-17T12:49:26.639Z,34.70
2022-08-17T12:52:03.448Z,34.90
2022-08-17T12:54:44.360Z,34.90
2022-08-17T12:57:20.413Z,34.90
2022-08-17T12:59:53.234Z,34.60
2022-08-17T13:02:28.507Z,34.40
2022-08-17T13:04:58.596Z,34.20
2022-08-17T13:07:27.849Z,34.30
2022-08-17T13:09:55.153Z,34.20
2022-08-17T13:12:28.956Z,34.40
2022-08-17T13:14:57.563Z,34.30
2022-08-17T13:17:28.882Z,34.10
2022-08-17T13:19:56.497Z,34.00
2022-08-17T13:22:25.733Z,33.80
2022-08-17T13:24:56.366Z,33.90
2022-08-17T13:27:26.077Z,34.10
2022-08-17T13:29:57.812Z,34.20
2022-08-17T13:32:46.584Z,34.20
2022-08-17T13:35:39.160Z,34.30
2022-08-17T13:38:13.081Z,34.30
2022-08-17T13:40:43.575Z,34.10
2022-08-17T13:43:12.068Z,34.20
2022-08-17T13:45:50.425Z,34.40
2022-08-17T13:48:29.216Z,34.30
2022-08-17T13:50:57.394Z,34.10
2022-08-17T13:53:47.374Z,34.00
2022-08-17T13:56:39.713Z,34.10
2022-08-17T13:59:15.397Z,34.20
2022-08-17T14:01:53.445Z,34.30
2022-08-17T14:04:25.071Z,34.20
2022-08-17T14:06:54.421Z,34.30
2022-08-17T14:09:26.264Z,34.30
2022-08-17T14:11:55.480Z,34.20
2022-08-17T14:14:23.321Z,34.40
2022-08-17T14:16:52.139Z,34.30
2022-08-17T14:19:19.724Z,34.30
2022-08-17T14:21:46.974Z,34.30
2022-08-17T14:24:24.875Z,34.40
2022-08-17T14:26:53.111Z,34.20
2022-08-17T14:29:21.447Z,34.10
2022-08-17T14:31:54.447Z,34.00
2022-08-17T14:34:24.403Z,34.10
2022-08-17T14:36:52.312Z,34.10
2022-08-17T14:39:20.265Z,34.10
2022-08-17T14:41:47.953Z,34.00
2022-08-17T14:44:15.381Z,33.80
2022-08-17T14:46:44.599Z,33.70
2022-08-17T14:49:13.542Z,33.50
2022-08-17T14:51:43.585Z,33.60
2022-08-17T14:54:33.674Z,33.60
2022-08-17T14:57:22.407Z,33.60
2022-08-17T14:59:52.304Z,33.60
2022-08-17T15:02:29.444Z,33.70
2022-08-17T15:05:03.797Z,33.60
2022-08-17T15:07:31.529Z,33.40
2022-08-17T15:10:01.578Z,33.40
2022-08-17T15:12:33.125Z,33.50
2022-08-17T15:15:04.434Z,33.50
2022-08-17T15:17:44.316Z,33.50
2022-08-17T15:20:16.150Z,33.50
2022-08-17T15:22:44.886Z,33.50
2022-08-17T15:25:12.872Z,33.40
2022-08-17T15:27:40.459Z,33.30
2022-08-17T15:30:10.132Z,33.20
2022-08-17T15:32:40.933Z,33.20
2022-08-17T15:35:15.480Z,33.20
2022-08-17T15:37:43.742Z,33.10
2022-08-17T15:40:12.318Z,33.00
2022-08-17T15:42:41.022Z,33.00
2022-08-17T15:45:11.651Z,32.90
2022-08-17T15:47:39.260Z,32.70
2022-08-17T15:50:07.835Z,32.70
2022-08-17T15:52:40.173Z,32.70
2022-08-17T15:55:11.092Z,32.60
2022-08-17T15:57:38.255Z,32.50
2022-08-17T16:00:07.926Z,32.40
2022-08-17T16:03:13.588Z,32.30
2022-08-17T16:05:28.606Z,32.10
2022-08-17T16:07:59.875Z,32.10
2022-08-17T16:10:34.914Z,32.00
2022-08-17T16:13:04.220Z,32.00
2022-08-17T16:15:32.067Z,32.00
2022-08-17T16:17:59.712Z,31.90
2022-08-17T16:20:27.254Z,31.80
2022-08-17T16:22:55.136Z,31.70
2022-08-17T16:25:49.205Z,31.50
2022-08-17T16:28:16.428Z,31.40
2022-08-17T16:30:43.496Z,31.20
2022-08-17T16:33:11.716Z,31.10
2022-08-17T16:35:39.487Z,31.00
2022-08-17T16:38:07.155Z,30.70
2022-08-17T16:40:36.348Z,30.60
2022-08-17T16:43:12.150Z,30.40
2022-08-17T16:45:40.855Z,30.20
2022-08-17T16:48:08.959Z,30.20
2022-08-17T16:50:37.255Z,30.10
2022-08-17T16:53:07.745Z,30.00
2022-08-17T16:55:35.884Z,29.90
2022-08-17T16:58:06.012Z,29.80
2022-08-17T17:00:33.997Z,29.60
2022-08-17T17:03:20.687Z,29.50
2022-08-17T17:06:13.503Z,29.30
2022-08-17T17:08:48.437Z,29.30
2022-08-17T17:11:25.045Z,29.20
2022-08-17T17:13:58.507Z,29.10
2022-08-17T17:16:27.796Z,29.00
2022-08-17T17:19:19.501Z,28.90
2022-08-17T17:22:18.347Z,28.80
2022-08-17T17:24:51.850Z,28.80
2022-08-17T17:27:23.920Z,28.70
2022-08-17T17:30:02.268Z,28.50
2022-08-17T17:32:41.515Z,28.50
2022-08-17T17:35:16.414Z,28.40
2022-08-17T17:37:45.653Z,28.30
2022-08-17T17:40:20.495Z,28.10
2022-08-17T17:42:49.115Z,28.00
2022-08-17T17:45:23.932Z,27.80
2022-08-17T17:47:51.193Z,27.60
2022-08-17T17:50:21.560Z,27.50
2022-08-17T17:52:59.397Z,27.40
2022-08-17T17:55:59.802Z,27.30
2022-08-17T17:58:37.522Z,27.20
2022-08-17T18:01:24.531Z,27.10
2022-08-17T18:03:52.837Z,27.00
2022-08-17T18:06:47.168Z,27.00
2022-08-17T18:09:33.921Z,26.80
2022-08-17T18:12:21.015Z,26.80
2022-08-17T18:15:10.423Z,26.60
2022-08-17T18:17:37.586Z,26.50
2022-08-17T18:20:06.973Z,26.40
2022-08-17T18:22:34.264Z,26.30
2022-08-17T18:25:01.410Z,26.20
2022-08-17T18:27:34.599Z,26.00
2022-08-17T18:30:20.082Z,25.90
2022-08-17T18:32:47.812Z,25.80
2022-08-17T18:35:14.927Z,25.70
2022-08-17T18:37:45.257Z,25.70
2022-08-17T18:40:29.261Z,25.70
2022-08-17T18:42:57.545Z,25.70
2022-08-17T18:45:33.713Z,25.50
2022-08-17T18:48:01.256Z,25.40
2022-08-17T18:50:36.478Z,25.30
2022-08-17T18:53:30.162Z,25.20
2022-08-17T18:56:21.666Z,25.10
2022-08-17T18:59:00.603Z,25.00
2022-08-17T19:01:47.145Z,24.80
2022-08-17T19:04:41.164Z,24.80
2022-08-17T19:07:29.739Z,24.70
2022-08-17T19:09:57.995Z,24.60
2022-08-17T19:12:29.344Z,24.60
2022-08-17T19:14:58.511Z,24.60
2022-08-17T19:17:51.618Z,24.60
2022-08-17T19:20:19.770Z,24.50
2022-08-17T19:22:49.676Z,24.50
2022-08-17T19:25:27.045Z,24.40
2022-08-17T19:28:02.931Z,24.40
2022-08-17T19:30:30.766Z,24.20
2022-08-17T19:32:58.533Z,24.10
2022-08-17T19:35:39.394Z,24.00
2022-08-17T19:38:25.018Z,23.90
2022-08-17T19:41:01.591Z,23.80
2022-08-17T19:44:06.692Z,23.70
2022-08-17T19:46:59.500Z,23.60
2022-08-17T19:49:41.360Z,23.50
2022-08-17T19:52:40.557Z,23.50
2022-08-17T19:55:20.555Z,23.50
2022-08-17T19:58:24.845Z,23.40
2022-08-17T20:00:54.495Z,23.40
2022-08-17T20:03:25.033Z,23.30
2022-08-17T20:06:13.712Z,23.30
2022-08-17T20:08:47.661Z,23.30
2022-08-17T20:11:21.617Z,23.20
2022-08-17T20:14:04.997Z,23.20
2022-08-17T20:16:34.281Z,23.10
2022-08-17T20:19:22.669Z,23.00
2022-08-17T20:22:14.513Z,22.90
2022-08-17T20:24:42.573Z,22.90
2022-08-17T20:27:26.360Z,22.70
2022-08-17T20:30:09.325Z,22.70
2022-08-17T20:32:53.005Z,22.70
2022-08-17T20:35:22.699Z,22.70
2022-08-17T20:37:57.460Z,22.60
2022-08-17T20:40:29.150Z,22.60
2022-08-17T20:42:57.339Z,22.60
2022-08-17T20:45:26.451Z,22.50
2022-08-17T20:48:22.218Z,22.40
2022-08-17T20:50:52.027Z,22.40
2022-08-17T20:53:54.796Z,22.30
2022-08-17T20:56:43.944Z,22.20
2022-08-17T20:59:31.680Z,22.20
2022-08-17T21:02:12.402Z,22.20
2022-08-17T21:04:54.398Z,22.20
2022-08-17T21:07:32.872Z,22.10
2022-08-17T21:10:27.791Z,22.00
2022-08-17T21:13:15.397Z,21.90
2022-08-17T21:16:06.352Z,21.90
2022-08-17T21:18:39.553Z,21.80
2022-08-17T21:21:33.666Z,21.80
2022-08-17T21:24:20.573Z,21.80
2022-08-17T21:27:08.872Z,21.70
2022-08-17T21:30:11.932Z,21.60
2022-08-17T21:32:41.969Z,21.60
2022-08-17T21:35:28.706Z,21.50
2022-08-17T21:38:02.535Z,21.40
2022-08-17T21:40:32.153Z,21.40
2022-08-17T21:43:17.712Z,21.30
2022-08-17T21:45:57.672Z,21.30
2022-08-17T21:48:26.464Z,21.20
2022-08-17T21:51:01.143Z,21.20
2022-08-17T21:53:37.030Z,21.20
2022-08-17T21:56:05.153Z,21.10
2022-08-17T21:58:39.169Z,21.10
2022-08-17T22:01:28.721Z,21.00
2022-08-17T22:03:59.067Z,21.00
2022-08-17T22:06:33.612Z,20.90
2022-08-17T22:09:02.421Z,20.80
2022-08-17T22:11:29.694Z,20.70
2022-08-17T22:14:05.107Z,20.70
2022-08-17T22:16:32.921Z,20.50
2022-08-17T22:19:00.086Z,20.40
2022-08-17T22:21:27.422Z,20.30
2022-08-17T22:24:19.904Z,20.20
2022-08-17T22:27:10.938Z,20.20
2022-08-17T22:29:57.287Z,20.10
2022-08-17T22:32:44.740Z,20.10
2022-08-17T22:35:32.840Z,20.10
2022-08-17T22:38:19.783Z,20.00
2022-08-17T22:40:50.924Z,20.00
2022-08-17T22:43:24.211Z,19.90
2022-08-17T22:45:57.021Z,20.00
2022-08-17T22:48:28.927Z,20.00
2022-08-17T22:51:12.336Z,20.00
2022-08-17T22:54:07.780Z,19.90
2022-08-17T22:56:54.901Z,19.80
2022-08-17T22:59:44.802Z,19.80
2022-08-17T23:02:12.967Z,19.70
2022-08-17T23:04:44.826Z,19.70
2022-08-17T23:07:12.152Z,19.80
2022-08-17T23:09:39.414Z,20.10
2022-08-17T23:12:09.694Z,20.10
2022-08-17T23:14:40.905Z,20.20
2022-08-17T23:17:08.951Z,20.20
2022-08-17T23:19:36.065Z,20.10
2022-08-17T23:22:05.608Z,20.10
2022-08-17T23:24:38.299Z,20.00
2022-08-17T23:27:07.693Z,20.00
2022-08-17T23:29:35.565Z,19.90
2022-08-17T23:32:04.778Z,19.90
2022-08-17T23:34:31.911Z,19.80
2022-08-17T23:37:02.295Z,19.80
2022-08-17T23:39:29.373Z,19.70
2022-08-17T23:41:59.093Z,19.60
2022-08-17T23:44:27.098Z,19.60
2022-08-17T23:46:54.788Z,19.60
2022-08-17T23:49:23.500Z,19.60
2022-08-17T23:51:52.509Z,19.70
2022-08-17T23:54:26.514Z,19.70
2022-08-17T23:56:53.913Z,19.70
2022-08-17T23:59:22.558Z,19.80
